Time;durP1;ratioP1;P1;durP2;ratioP2;P2;SDS_P1;SDS_P2;PMS_P1;PMS_P2;Temp;Humidity;BMP_temperature;BMP_pressure;BME280_temperature;BME280_humidity;BME280_pressure;Samples;Min_cycle;Max_cycle;Signal;HPM_P1;HPM_P2
2023/09/17 00:00:34;;;;;;;0.00;0.00;;;;;;;;;;1740231;28;20254;-82
2023/09/17 00:01:26;;;;;;;0.00;0.00;;;;;;;;;;1736544;28;20208;-81
2023/09/17 00:02:17;;;;;;;0.00;0.00;;;;;;;;;;1737525;28;20200;-81
2023/09/17 00:03:09;;;;;;;0.00;0.00;;;;;;;;;;1737547;28;20200;-81
2023/09/17 00:04:00;;;;;;;0.00;0.00;;;;;;;;;;1738524;28;20311;-82
2023/09/17 00:04:52;;;;;;;0.00;0.00;;;;;;;;;;1742128;28;20199;-82
2023/09/17 00:05:44;;;;;;;0.00;0.00;;;;;;;;;;1737121;28;20258;-82
2023/09/17 00:06:36;;;;;;;0.00;0.00;;;;;;;;;;1737475;28;20917;-82
2023/09/17 00:07:27;;;;;;;0.00;0.00;;;;;;;;;;1737911;28;20620;-82
2023/09/17 00:08:18;;;;;;;0.00;0.00;;;;;;;;;;1740934;28;20223;-81
2023/09/17 00:09:10;;;;;;;0.00;0.00;;;;;;;;;;1738766;28;20293;-81
2023/09/17 00:10:04;;;;;;;0.00;0.00;;;;;;;;;;1738390;28;20219;-81
2023/09/17 00:10:56;;;;;;;0.00;0.00;;;;;;;;;;1737319;28;20562;-81
2023/09/17 00:11:49;;;;;;;0.00;0.00;;;;;;;;;;1740204;28;20227;-81
2023/09/17 00:12:40;;;;;;;0.00;0.00;;;;;;;;;;1740688;28;20207;-81
2023/09/17 00:13:32;;;;;;;0.00;0.00;;;;;;;;;;1741464;28;20200;-81
2023/09/17 00:14:23;;;;;;;0.00;0.00;;;;;;;;;;1739611;28;20265;-81
2023/09/17 00:15:15;;;;;;;0.00;0.00;;;;;;;;;;1743772;28;20197;-81
2023/09/17 00:16:07;;;;;;;0.00;0.00;;;;;;;;;;1738996;28;20187;-81
2023/09/17 00:16:59;;;;;;;0.00;0.00;;;;;;;;;;1742294;28;20214;-82
2023/09/17 00:17:50;;;;;;;0.00;0.00;;;;;;;;;;1738817;28;20204;-81
2023/09/17 00:18:42;;;;;;;0.00;0.00;;;;;;;;;;1738024;28;20230;-81
2023/09/17 00:19:33;;;;;;;0.00;0.00;;;;;;;;;;1737410;28;20246;-82
2023/09/17 00:20:24;;;;;;;0.00;0.00;;;;;;;;;;1739734;28;20195;-82
2023/09/17 00:21:16;;;;;;;0.00;0.00;;;;;;;;;;1738465;28;20557;-81
2023/09/17 00:22:09;;;;;;;0.00;0.00;;;;;;;;;;1737706;28;20223;-81
2023/09/17 00:23:00;;;;;;;0.00;0.00;;;;;;;;;;1737337;28;20214;-81
2023/09/17 00:23:52;;;;;;;0.00;0.00;;;;;;;;;;1737968;28;20302;-81
2023/09/17 00:24:43;;;;;;;0.00;0.00;;;;;;;;;;1740024;28;20218;-81
2023/09/17 00:25:37;;;;;;;0.00;0.00;;;;;;;;;;1740079;28;20743;-82
2023/09/17 00:26:28;;;;;;;0.00;0.00;;;;;;;;;;1737572;28;20207;-81
2023/09/17 00:27:21;;;;;;;0.00;0.00;;;;;;;;;;1742906;28;21112;-81
2023/09/17 00:28:13;;;;;;;0.00;0.00;;;;;;;;;;1741159;28;20636;-82
2023/09/17 00:29:04;;;;;;;0.00;0.00;;;;;;;;;;1737780;28;20594;-82
2023/09/17 00:29:56;;;;;;;0.00;0.00;;;;;;;;;;1737328;28;20204;-82
2023/09/17 00:30:47;;;;;;;0.00;0.00;;;;;;;;;;1736483;28;20258;-82
2023/09/17 00:31:39;;;;;;;0.00;0.00;;;;;;;;;;1738176;28;20203;-81
2023/09/17 00:32:30;;;;;;;0.00;0.00;;;;;;;;;;1741460;28;20214;-81
2023/09/17 00:33:22;;;;;;;0.00;0.00;;;;;;;;;;1737978;28;20214;-81
2023/09/17 00:34:13;;;;;;;0.00;0.00;;;;;;;;;;1736917;28;20235;-81
2023/09/17 00:35:05;;;;;;;0.00;0.00;;;;;;;;;;1741342;28;20788;-81
2023/09/17 00:35:57;;;;;;;0.00;0.00;;;;;;;;;;1726054;28;20227;-81
2023/09/17 00:36:48;;;;;;;0.00;0.00;;;;;;;;;;1739677;28;20219;-82
2023/09/17 00:37:40;;;;;;;0.00;0.00;;;;;;;;;;1739752;28;20239;-81
2023/09/17 00:38:32;;;;;;;0.00;0.00;;;;;;;;;;1737424;28;20453;-82
2023/09/17 00:39:23;;;;;;;0.00;0.00;;;;;;;;;;1736757;28;20715;-82
2023/09/17 00:40:14;;;;;;;0.00;0.00;;;;;;;;;;1739438;28;20268;-81
2023/09/17 00:41:07;;;;;;;0.00;0.00;;;;;;;;;;1736610;28;20588;-81
2023/09/17 00:41:58;;;;;;;0.00;0.00;;;;;;;;;;1741633;28;20206;-82
2023/09/17 00:42:51;;;;;;;0.00;0.00;;;;;;;;;;1739825;28;20199;-82
2023/09/17 00:43:43;;;;;;;0.00;0.00;;;;;;;;;;1739947;28;20214;-82
2023/09/17 00:44:35;;;;;;;0.00;0.00;;;;;;;;;;1737240;28;20653;-82
2023/09/17 00:45:29;;;;;;;0.00;0.00;;;;;;;;;;1739510;28;20199;-81
2023/09/17 00:46:20;;;;;;;0.00;0.00;;;;;;;;;;1738301;28;20218;-82
2023/09/17 00:47:12;;;;;;;0.00;0.00;;;;;;;;;;1742959;28;20884;-82
2023/09/17 00:48:04;;;;;;;0.00;0.00;;;;;;;;;;1741110;28;20223;-82
2023/09/17 00:48:56;;;;;;;0.00;0.00;;;;;;;;;;1737819;28;20242;-81
2023/09/17 00:49:47;;;;;;;0.00;0.00;;;;;;;;;;1736684;28;20238;-81
2023/09/17 00:50:39;;;;;;;0.00;0.00;;;;;;;;;;1739078;28;20241;-81
2023/09/17 00:51:31;;;;;;;0.00;0.00;;;;;;;;;;1737146;28;20207;-81
2023/09/17 00:52:22;;;;;;;0.00;0.00;;;;;;;;;;1737841;28;20230;-82
2023/09/17 00:53:13;;;;;;;0.00;0.00;;;;;;;;;;1741355;28;20207;-82
2023/09/17 00:54:06;;;;;;;0.00;0.00;;;;;;;;;;1738461;28;20200;-82
2023/09/17 00:54:57;;;;;;;0.00;0.00;;;;;;;;;;1742422;28;20229;-81
2023/09/17 00:55:48;;;;;;;0.00;0.00;;;;;;;;;;1737856;28;20223;-83
2023/09/17 00:56:40;;;;;;;0.00;0.00;;;;;;;;;;1736153;28;20204;-83
2023/09/17 00:57:32;;;;;;;0.00;0.00;;;;;;;;;;1736284;28;20246;-83
2023/09/17 00:58:24;;;;;;;0.00;0.00;;;;;;;;;;1736870;28;20231;-83
2023/09/17 00:59:16;;;;;;;0.00;0.00;;;;;;;;;;1730202;28;20200;-83
2023/09/17 01:00:09;;;;;;;0.00;0.00;;;;;;;;;;1735432;28;20246;-84
2023/09/17 01:01:00;;;;;;;0.00;0.00;;;;;;;;;;1734488;28;20319;-83
2023/09/17 01:01:52;;;;;;;0.00;0.00;;;;;;;;;;1741573;28;20195;-82
2023/09/17 01:02:44;;;;;;;0.00;0.00;;;;;;;;;;1738012;28;20223;-83
2023/09/17 01:03:36;;;;;;;0.00;0.00;;;;;;;;;;1735941;28;20221;-83
2023/09/17 01:04:27;;;;;;;0.00;0.00;;;;;;;;;;1735638;28;20203;-83
2023/09/17 01:05:19;;;;;;;0.00;0.00;;;;;;;;;;1735103;28;20211;-83
2023/09/17 01:06:11;;;;;;;0.00;0.00;;;;;;;;;;1736673;28;20258;-83
2023/09/17 01:07:04;;;;;;;0.00;0.00;;;;;;;;;;1738907;28;20195;-84
2023/09/17 01:07:56;;;;;;;0.00;0.00;;;;;;;;;;1737716;28;20200;-83
2023/09/17 01:08:48;;;;;;;0.00;0.00;;;;;;;;;;1730893;28;20507;-81
2023/09/17 01:09:40;;;;;;;0.00;0.00;;;;;;;;;;1736007;28;20212;-83
2023/09/17 01:10:34;;;;;;;0.00;0.00;;;;;;;;;;1734867;28;20239;-82
2023/09/17 01:11:26;;;;;;;0.00;0.00;;;;;;;;;;1736578;28;20203;-82
2023/09/17 01:12:17;;;;;;;0.00;0.00;;;;;;;;;;1736729;28;20249;-82
2023/09/17 01:13:09;;;;;;;0.00;0.00;;;;;;;;;;1736589;28;20269;-82
2023/09/17 01:14:08;;;;;;;0.00;0.00;;;;;;;;;;1736498;28;20207;-82
2023/09/17 01:14:59;;;;;;;0.00;0.00;;;;;;;;;;1737353;28;20198;-83
2023/09/17 01:15:52;;;;;;;0.00;0.00;;;;;;;;;;1736456;28;20732;-83
2023/09/17 01:16:45;;;;;;;0.00;0.00;;;;;;;;;;1738045;28;20215;-83
2023/09/17 01:17:37;;;;;;;0.00;0.00;;;;;;;;;;1739530;28;20897;-83
2023/09/17 01:18:29;;;;;;;0.00;0.00;;;;;;;;;;1736243;28;20212;-84
2023/09/17 01:19:23;;;;;;;0.00;0.00;;;;;;;;;;1735686;28;20227;-84
2023/09/17 01:20:24;;;;;;;0.00;0.00;;;;;;;;;;1737397;28;20313;-84
2023/09/17 01:21:17;;;;;;;0.00;0.00;;;;;;;;;;1734327;28;20206;-84
2023/09/17 01:22:13;;;;;;;0.00;0.00;;;;;;;;;;1742135;28;20206;-84
2023/09/17 01:23:09;;;;;;;0.00;0.00;;;;;;;;;;1734553;28;20279;-85
2023/09/17 01:24:06;;;;;;;0.00;0.00;;;;;;;;;;1737165;28;20243;-84
2023/09/17 01:25:04;;;;;;;0.00;0.00;;;;;;;;;;1736658;28;20188;-84
2023/09/17 01:25:57;;;;;;;0.00;0.00;;;;;;;;;;1735051;28;20228;-84
2023/09/17 01:26:58;;;;;;;0.00;0.00;;;;;;;;;;1739614;28;20222;-84
2023/09/17 01:27:50;;;;;;;0.00;0.00;;;;;;;;;;1740316;28;20199;-85
2023/09/17 01:28:41;;;;;;;0.00;0.00;;;;;;;;;;1739267;28;20940;-85
2023/09/17 01:29:35;;;;;;;0.00;0.00;;;;;;;;;;1739130;28;20346;-85
2023/09/17 01:30:27;;;;;;;0.00;0.00;;;;;;;;;;1737034;28;20629;-84
2023/09/17 01:31:18;;;;;;;0.00;0.00;;;;;;;;;;1738465;28;20207;-84
2023/09/17 01:32:11;;;;;;;0.00;0.00;;;;;;;;;;1737088;28;20196;-84
2023/09/17 01:33:03;;;;;;;0.00;0.00;;;;;;;;;;1735645;28;20257;-84
2023/09/17 01:33:54;;;;;;;0.00;0.00;;;;;;;;;;1738336;28;20199;-83
2023/09/17 01:34:49;;;;;;;0.00;0.00;;;;;;;;;;1736060;28;20243;-83
2023/09/17 01:35:45;;;;;;;0.00;0.00;;;;;;;;;;1732079;28;20903;-84
2023/09/17 01:36:37;;;;;;;0.00;0.00;;;;;;;;;;1736358;28;20227;-85
2023/09/17 01:37:31;;;;;;;0.00;0.00;;;;;;;;;;1736278;28;20210;-85
2023/09/17 01:38:24;;;;;;;0.00;0.00;;;;;;;;;;1736692;28;20192;-84
2023/09/17 01:39:18;;;;;;;0.00;0.00;;;;;;;;;;1736753;28;20236;-84
2023/09/17 01:40:11;;;;;;;0.00;0.00;;;;;;;;;;1737518;28;20199;-84
2023/09/17 01:41:04;;;;;;;0.00;0.00;;;;;;;;;;1734926;28;20228;-84
2023/09/17 01:41:58;;;;;;;0.00;0.00;;;;;;;;;;1733356;28;20253;-84
2023/09/17 01:42:51;;;;;;;0.00;0.00;;;;;;;;;;1736903;28;20234;-84
2023/09/17 01:43:44;;;;;;;0.00;0.00;;;;;;;;;;1738125;28;20580;-84
2023/09/17 01:44:36;;;;;;;0.00;0.00;;;;;;;;;;1735792;28;20633;-84
2023/09/17 01:45:28;;;;;;;0.00;0.00;;;;;;;;;;1740001;28;20298;-85
2023/09/17 01:46:20;;;;;;;0.00;0.00;;;;;;;;;;1736968;28;20204;-85
2023/09/17 01:47:11;;;;;;;0.00;0.00;;;;;;;;;;1737722;28;20294;-84
2023/09/17 01:48:03;;;;;;;0.00;0.00;;;;;;;;;;1737612;28;20249;-84
2023/09/17 01:48:55;;;;;;;0.00;0.00;;;;;;;;;;1738065;28;20204;-85
2023/09/17 01:49:46;;;;;;;0.00;0.00;;;;;;;;;;1737792;28;20234;-84
2023/09/17 01:50:39;;;;;;;0.00;0.00;;;;;;;;;;1739962;28;20246;-84
2023/09/17 01:51:31;;;;;;;0.00;0.00;;;;;;;;;;1740960;28;20249;-85
2023/09/17 01:52:25;;;;;;;0.00;0.00;;;;;;;;;;1741870;28;20229;-84
2023/09/17 01:53:16;;;;;;;0.00;0.00;;;;;;;;;;1737713;28;20944;-84
2023/09/17 01:54:07;;;;;;;0.00;0.00;;;;;;;;;;1737793;28;20196;-84
2023/09/17 01:54:59;;;;;;;0.00;0.00;;;;;;;;;;1737333;28;20223;-85
2023/09/17 01:55:52;;;;;;;0.00;0.00;;;;;;;;;;1736335;28;20223;-84
2023/09/17 01:56:44;;;;;;;0.00;0.00;;;;;;;;;;1740340;28;20511;-84
2023/09/17 01:57:37;;;;;;;0.00;0.00;;;;;;;;;;1743190;28;20202;-84
2023/09/17 01:58:29;;;;;;;0.00;0.00;;;;;;;;;;1742684;28;20207;-83
2023/09/17 01:59:20;;;;;;;0.00;0.00;;;;;;;;;;1737232;28;20199;-84
2023/09/17 02:00:14;;;;;;;0.00;0.00;;;;;;;;;;1737303;28;20805;-84
2023/09/17 02:01:06;;;;;;;0.00;0.00;;;;;;;;;;1736694;28;20216;-83
2023/09/17 02:01:57;;;;;;;0.00;0.00;;;;;;;;;;1740824;28;20203;-83
2023/09/17 02:02:50;;;;;;;0.00;0.00;;;;;;;;;;1738807;28;20257;-83
2023/09/17 02:03:41;;;;;;;0.00;0.00;;;;;;;;;;1737394;28;20223;-84
2023/09/17 02:04:32;;;;;;;0.00;0.00;;;;;;;;;;1740005;28;20235;-84
2023/09/17 02:05:25;;;;;;;0.00;0.00;;;;;;;;;;1736155;28;20214;-84
2023/09/17 02:06:16;;;;;;;0.00;0.00;;;;;;;;;;1738445;28;20215;-83
2023/09/17 02:07:09;;;;;;;0.00;0.00;;;;;;;;;;1738854;28;20206;-84
2023/09/17 02:08:00;;;;;;;0.00;0.00;;;;;;;;;;1739282;28;20200;-84
2023/09/17 02:08:52;;;;;;;0.00;0.00;;;;;;;;;;1738490;28;20231;-84
2023/09/17 02:09:43;;;;;;;0.00;0.00;;;;;;;;;;1741445;28;20204;-83
2023/09/17 02:10:35;;;;;;;0.00;0.00;;;;;;;;;;1739884;28;20227;-84
2023/09/17 02:11:26;;;;;;;0.00;0.00;;;;;;;;;;1738384;28;20630;-84
2023/09/17 02:12:17;;;;;;;0.00;0.00;;;;;;;;;;1742801;28;20195;-84
2023/09/17 02:13:10;;;;;;;0.00;0.00;;;;;;;;;;1736633;28;20207;-84
2023/09/17 02:14:02;;;;;;;0.00;0.00;;;;;;;;;;1736982;28;20219;-84
2023/09/17 02:14:54;;;;;;;0.00;0.00;;;;;;;;;;1742413;28;20262;-84
2023/09/17 02:15:45;;;;;;;0.00;0.00;;;;;;;;;;1736712;28;20239;-83
2023/09/17 02:16:37;;;;;;;0.00;0.00;;;;;;;;;;1738275;28;20229;-83
2023/09/17 02:17:28;;;;;;;0.00;0.00;;;;;;;;;;1738449;28;20220;-83
2023/09/17 02:18:21;;;;;;;0.00;0.00;;;;;;;;;;1741891;28;20198;-81
2023/09/17 02:19:12;;;;;;;0.00;0.00;;;;;;;;;;1738434;28;20246;-82
2023/09/17 02:20:10;;;;;;;0.00;0.00;;;;;;;;;;1740710;28;20198;-82
2023/09/17 02:21:02;;;;;;;0.00;0.00;;;;;;;;;;1734934;28;20941;-82
2023/09/17 02:21:54;;;;;;;0.00;0.00;;;;;;;;;;1741628;28;20199;-82
2023/09/17 02:22:46;;;;;;;0.00;0.00;;;;;;;;;;1738741;28;20200;-82
2023/09/17 02:23:37;;;;;;;0.00;0.00;;;;;;;;;;1742118;28;20211;-82
2023/09/17 02:24:28;;;;;;;0.00;0.00;;;;;;;;;;1739283;28;20230;-82
2023/09/17 02:25:20;;;;;;;0.00;0.00;;;;;;;;;;1737814;28;20203;-82
2023/09/17 02:26:11;;;;;;;0.00;0.00;;;;;;;;;;1738485;28;20199;-82
2023/09/17 02:27:03;;;;;;;0.00;0.00;;;;;;;;;;1737619;28;20246;-82
2023/09/17 02:27:54;;;;;;;0.00;0.00;;;;;;;;;;1745945;28;20814;-82
2023/09/17 02:28:47;;;;;;;0.00;0.00;;;;;;;;;;1747269;28;20199;-82
2023/09/17 02:29:39;;;;;;;0.00;0.00;;;;;;;;;;1748928;28;20230;-82
2023/09/17 02:30:31;;;;;;;0.00;0.00;;;;;;;;;;1744647;28;20269;-82
2023/09/17 02:31:22;;;;;;;0.00;0.00;;;;;;;;;;1745879;28;20218;-83
2023/09/17 02:32:14;;;;;;;0.00;0.00;;;;;;;;;;1750536;28;20206;-82
2023/09/17 02:33:06;;;;;;;0.00;0.00;;;;;;;;;;1750481;28;20217;-83
2023/09/17 02:33:58;;;;;;;0.00;0.00;;;;;;;;;;1748298;28;20609;-82
2023/09/17 02:34:49;;;;;;;0.00;0.00;;;;;;;;;;1745894;28;20595;-83
2023/09/17 02:35:41;;;;;;;0.00;0.00;;;;;;;;;;1746609;28;20235;-83
2023/09/17 02:36:34;;;;;;;0.00;0.00;;;;;;;;;;1745742;28;20213;-84
2023/09/17 02:37:26;;;;;;;0.00;0.00;;;;;;;;;;1750029;28;20228;-83
2023/09/17 02:38:17;;;;;;;0.00;0.00;;;;;;;;;;1745687;28;20210;-83
2023/09/17 02:39:08;;;;;;;0.00;0.00;;;;;;;;;;1747295;28;20202;-84
2023/09/17 02:40:02;;;;;;;0.00;0.00;;;;;;;;;;1747913;28;20933;-82
2023/09/17 02:40:54;;;;;;;0.00;0.00;;;;;;;;;;1740658;28;20251;-82
2023/09/17 02:41:45;;;;;;;0.00;0.00;;;;;;;;;;1747221;28;20194;-84
2023/09/17 02:42:37;;;;;;;0.00;0.00;;;;;;;;;;1748160;28;20210;-82
2023/09/17 02:43:29;;;;;;;0.00;0.00;;;;;;;;;;1749001;28;20972;-82
2023/09/17 02:44:21;;;;;;;0.00;0.00;;;;;;;;;;1743843;28;20206;-82
2023/09/17 02:45:13;;;;;;;0.00;0.00;;;;;;;;;;1745987;28;20218;-81
2023/09/17 02:46:04;;;;;;;0.00;0.00;;;;;;;;;;1745027;28;20218;-81
2023/09/17 02:46:55;;;;;;;0.00;0.00;;;;;;;;;;1747650;28;20262;-82
2023/09/17 02:47:48;;;;;;;0.00;0.00;;;;;;;;;;1739936;28;20632;-82
2023/09/17 02:48:39;;;;;;;0.00;0.00;;;;;;;;;;1751083;28;20260;-82
2023/09/17 02:49:30;;;;;;;0.00;0.00;;;;;;;;;;1742215;28;20199;-82
2023/09/17 02:50:22;;;;;;;0.00;0.00;;;;;;;;;;1743264;28;20651;-82
2023/09/17 02:51:13;;;;;;;0.00;0.00;;;;;;;;;;1742612;28;20210;-82
2023/09/17 02:52:06;;;;;;;0.00;0.00;;;;;;;;;;1743044;28;20674;-82
2023/09/17 02:52:58;;;;;;;0.00;0.00;;;;;;;;;;1746851;28;20203;-81
2023/09/17 02:53:49;;;;;;;0.00;0.00;;;;;;;;;;1746440;28;20199;-81
2023/09/17 02:54:41;;;;;;;0.00;0.00;;;;;;;;;;1744518;28;20210;-81
2023/09/17 02:55:34;;;;;;;0.00;0.00;;;;;;;;;;1746791;28;20671;-81
2023/09/17 02:56:25;;;;;;;0.00;0.00;;;;;;;;;;1742744;28;20235;-81
2023/09/17 02:57:16;;;;;;;0.00;0.00;;;;;;;;;;1744526;28;20211;-81
2023/09/17 02:58:09;;;;;;;0.00;0.00;;;;;;;;;;1744334;28;20195;-81
2023/09/17 02:59:00;;;;;;;0.00;0.00;;;;;;;;;;1747997;28;20280;-81
2023/09/17 02:59:54;;;;;;;0.00;0.00;;;;;;;;;;1746649;28;20274;-81
2023/09/17 03:00:45;;;;;;;0.00;0.00;;;;;;;;;;1746033;28;20258;-81
2023/09/17 03:01:38;;;;;;;0.00;0.00;;;;;;;;;;1744541;28;20199;-82
2023/09/17 03:02:29;;;;;;;0.00;0.00;;;;;;;;;;1745261;28;20207;-82
2023/09/17 03:03:20;;;;;;;0.00;0.00;;;;;;;;;;1748348;28;20198;-82
2023/09/17 03:04:12;;;;;;;0.00;0.00;;;;;;;;;;1750327;28;20549;-82
2023/09/17 03:05:04;;;;;;;0.00;0.00;;;;;;;;;;1746383;28;20636;-82
2023/09/17 03:05:56;;;;;;;0.00;0.00;;;;;;;;;;1744351;28;20340;-83
2023/09/17 03:06:48;;;;;;;0.00;0.00;;;;;;;;;;1746997;28;20195;-83
2023/09/17 03:07:39;;;;;;;0.00;0.00;;;;;;;;;;1750422;28;20237;-83
2023/09/17 03:08:30;;;;;;;0.00;0.00;;;;;;;;;;1744690;28;20219;-84
2023/09/17 03:09:22;;;;;;;0.00;0.00;;;;;;;;;;1749044;28;20666;-84
2023/09/17 03:10:13;;;;;;;0.00;0.00;;;;;;;;;;1746146;28;20592;-83
2023/09/17 03:11:05;;;;;;;0.00;0.00;;;;;;;;;;1743941;28;20208;-83
2023/09/17 03:11:57;;;;;;;0.00;0.00;;;;;;;;;;1745303;28;20199;-83
2023/09/17 03:12:48;;;;;;;0.00;0.00;;;;;;;;;;1743979;28;20644;-83
2023/09/17 03:13:40;;;;;;;0.00;0.00;;;;;;;;;;1741190;28;20201;-83
2023/09/17 03:14:33;;;;;;;0.00;0.00;;;;;;;;;;1746664;28;20225;-83
2023/09/17 03:15:26;;;;;;;0.00;0.00;;;;;;;;;;1743646;28;20222;-83
2023/09/17 03:16:18;;;;;;;0.00;0.00;;;;;;;;;;1743880;28;20203;-83
2023/09/17 03:17:09;;;;;;;0.00;0.00;;;;;;;;;;1744343;28;20946;-83
2023/09/17 03:18:01;;;;;;;0.00;0.00;;;;;;;;;;1746182;28;20223;-83
2023/09/17 03:18:53;;;;;;;0.00;0.00;;;;;;;;;;1744986;28;20249;-83
2023/09/17 03:19:44;;;;;;;0.00;0.00;;;;;;;;;;1742916;28;20211;-82
2023/09/17 03:20:35;;;;;;;0.00;0.00;;;;;;;;;;1744613;28;20318;-83
2023/09/17 03:21:27;;;;;;;0.00;0.00;;;;;;;;;;1739336;28;20203;-83
2023/09/17 03:22:18;;;;;;;0.00;0.00;;;;;;;;;;1743381;28;20230;-81
2023/09/17 03:23:11;;;;;;;0.00;0.00;;;;;;;;;;1745991;28;20241;-82
2023/09/17 03:24:02;;;;;;;0.00;0.00;;;;;;;;;;1739931;28;20211;-83
2023/09/17 03:24:56;;;;;;;0.00;0.00;;;;;;;;;;1742977;28;20202;-82
2023/09/17 03:25:47;;;;;;;0.00;0.00;;;;;;;;;;1745705;28;20298;-82
2023/09/17 03:26:38;;;;;;;0.00;0.00;;;;;;;;;;1737691;28;20192;-82
2023/09/17 03:27:30;;;;;;;0.00;0.00;;;;;;;;;;1738646;28;20864;-82
2023/09/17 03:28:21;;;;;;;0.00;0.00;;;;;;;;;;1739987;28;20199;-82
2023/09/17 03:29:12;;;;;;;0.00;0.00;;;;;;;;;;1736102;28;20203;-82
2023/09/17 03:30:05;;;;;;;0.00;0.00;;;;;;;;;;1738129;28;20203;-82
2023/09/17 03:30:57;;;;;;;0.00;0.00;;;;;;;;;;1734739;28;20242;-82
2023/09/17 03:31:48;;;;;;;0.00;0.00;;;;;;;;;;1736090;28;20239;-82
2023/09/17 03:32:40;;;;;;;0.00;0.00;;;;;;;;;;1736024;28;20218;-82
2023/09/17 03:33:32;;;;;;;0.00;0.00;;;;;;;;;;1738765;28;20211;-82
2023/09/17 03:34:23;;;;;;;0.00;0.00;;;;;;;;;;1736035;28;20265;-82
2023/09/17 03:35:15;;;;;;;0.00;0.00;;;;;;;;;;1738168;28;20241;-84
2023/09/17 03:36:06;;;;;;;0.00;0.00;;;;;;;;;;1734718;28;20216;-83
2023/09/17 03:36:58;;;;;;;0.00;0.00;;;;;;;;;;1730426;28;20621;-83
2023/09/17 03:37:50;;;;;;;0.00;0.00;;;;;;;;;;1736226;28;20231;-82
2023/09/17 03:38:42;;;;;;;0.00;0.00;;;;;;;;;;1739612;28;20684;-83
2023/09/17 03:39:33;;;;;;;0.00;0.00;;;;;;;;;;1736016;28;20262;-83
2023/09/17 03:40:24;;;;;;;0.00;0.00;;;;;;;;;;1735515;28;20207;-83
2023/09/17 03:41:16;;;;;;;0.00;0.00;;;;;;;;;;1736053;28;20622;-82
2023/09/17 03:42:07;;;;;;;0.00;0.00;;;;;;;;;;1730813;28;20649;-82
2023/09/17 03:42:59;;;;;;;0.00;0.00;;;;;;;;;;1735021;28;20204;-82
2023/09/17 03:43:50;;;;;;;0.00;0.00;;;;;;;;;;1737910;28;20215;-82
2023/09/17 03:44:41;;;;;;;0.00;0.00;;;;;;;;;;1735567;28;20641;-82
2023/09/17 03:45:33;;;;;;;0.00;0.00;;;;;;;;;;1735763;28;20318;-83
2023/09/17 03:46:26;;;;;;;0.00;0.00;;;;;;;;;;1733578;28;20293;-84
2023/09/17 03:47:17;;;;;;;0.00;0.00;;;;;;;;;;1732069;28;20231;-83
2023/09/17 03:48:09;;;;;;;0.00;0.00;;;;;;;;;;1735230;28;20196;-83
2023/09/17 03:49:00;;;;;;;0.00;0.00;;;;;;;;;;1737525;28;20559;-83
2023/09/17 03:49:51;;;;;;;0.00;0.00;;;;;;;;;;1737665;28;20191;-83
2023/09/17 03:50:43;;;;;;;0.00;0.00;;;;;;;;;;1737244;28;20234;-83
2023/09/17 03:51:34;;;;;;;0.00;0.00;;;;;;;;;;1737808;28;20238;-83
2023/09/17 03:52:26;;;;;;;0.00;0.00;;;;;;;;;;1738148;28;20195;-82
2023/09/17 03:53:18;;;;;;;0.00;0.00;;;;;;;;;;1737659;28;20227;-83
2023/09/17 03:54:09;;;;;;;0.00;0.00;;;;;;;;;;1739797;28;20233;-84
2023/09/17 03:55:05;;;;;;;0.00;0.00;;;;;;;;;;1738399;28;20804;-83
2023/09/17 03:55:57;;;;;;;0.00;0.00;;;;;;;;;;1740508;28;20234;-83
2023/09/17 03:56:49;;;;;;;0.00;0.00;;;;;;;;;;1732252;28;20219;-83
2023/09/17 03:57:40;;;;;;;0.00;0.00;;;;;;;;;;1737052;28;20227;-83
2023/09/17 03:58:32;;;;;;;0.00;0.00;;;;;;;;;;1741482;28;20203;-83
2023/09/17 03:59:23;;;;;;;0.00;0.00;;;;;;;;;;1737739;28;20227;-83
2023/09/17 04:00:15;;;;;;;0.00;0.00;;;;;;;;;;1737454;28;20195;-83
2023/09/17 04:01:08;;;;;;;0.00;0.00;;;;;;;;;;1734969;28;20223;-83
2023/09/17 04:02:00;;;;;;;0.00;0.00;;;;;;;;;;1733490;28;20785;-83
2023/09/17 04:02:52;;;;;;;0.00;0.00;;;;;;;;;;1737560;28;20362;-83
2023/09/17 04:03:45;;;;;;;0.00;0.00;;;;;;;;;;1736650;28;20207;-83
2023/09/17 04:04:36;;;;;;;0.00;0.00;;;;;;;;;;1736469;28;20212;-83
2023/09/17 04:05:28;;;;;;;0.00;0.00;;;;;;;;;;1735521;28;20196;-83
2023/09/17 04:06:20;;;;;;;0.00;0.00;;;;;;;;;;1736749;28;20222;-83
2023/09/17 04:07:11;;;;;;;0.00;0.00;;;;;;;;;;1736932;28;20230;-83
2023/09/17 04:08:03;;;;;;;0.00;0.00;;;;;;;;;;1739879;28;20219;-83
2023/09/17 04:08:55;;;;;;;0.00;0.00;;;;;;;;;;1737140;28;20202;-83
2023/09/17 04:09:46;;;;;;;0.00;0.00;;;;;;;;;;1735923;28;20200;-83
2023/09/17 04:10:38;;;;;;;0.00;0.00;;;;;;;;;;1736718;28;20676;-84
2023/09/17 04:11:29;;;;;;;0.00;0.00;;;;;;;;;;1734861;28;20200;-84
2023/09/17 04:12:21;;;;;;;0.00;0.00;;;;;;;;;;1740304;28;20206;-83
2023/09/17 04:13:12;;;;;;;0.00;0.00;;;;;;;;;;1738945;28;20204;-83
2023/09/17 04:14:05;;;;;;;0.00;0.00;;;;;;;;;;1738856;28;20196;-84
2023/09/17 04:14:57;;;;;;;0.00;0.00;;;;;;;;;;1740990;28;20196;-84
2023/09/17 04:15:49;;;;;;;0.00;0.00;;;;;;;;;;1737400;28;20228;-83
2023/09/17 04:16:41;;;;;;;0.00;0.00;;;;;;;;;;1737413;28;20203;-83
2023/09/17 04:17:34;;;;;;;0.00;0.00;;;;;;;;;;1737102;28;20223;-83
2023/09/17 04:18:26;;;;;;;0.00;0.00;;;;;;;;;;1737477;28;20208;-83
2023/09/17 04:19:17;;;;;;;0.00;0.00;;;;;;;;;;1741470;28;20207;-83
2023/09/17 04:20:11;;;;;;;0.00;0.00;;;;;;;;;;1738729;28;20671;-83
2023/09/17 04:21:03;;;;;;;0.00;0.00;;;;;;;;;;1735827;28;20262;-83
2023/09/17 04:21:54;;;;;;;0.00;0.00;;;;;;;;;;1737656;28;20291;-83
2023/09/17 04:22:47;;;;;;;0.00;0.00;;;;;;;;;;1739053;28;20204;-83
2023/09/17 04:23:39;;;;;;;0.00;0.00;;;;;;;;;;1737919;28;20211;-84
2023/09/17 04:24:31;;;;;;;0.00;0.00;;;;;;;;;;1737597;28;20222;-83
2023/09/17 04:25:25;;;;;;;0.00;0.00;;;;;;;;;;1734064;28;20218;-82
2023/09/17 04:26:17;;;;;;;0.00;0.00;;;;;;;;;;1737859;28;20282;-82
2023/09/17 04:27:08;;;;;;;0.00;0.00;;;;;;;;;;1741885;28;20218;-83
2023/09/17 04:28:02;;;;;;;0.00;0.00;;;;;;;;;;1737398;28;20282;-83
2023/09/17 04:28:53;;;;;;;0.00;0.00;;;;;;;;;;1740867;28;20231;-82
2023/09/17 04:29:44;;;;;;;0.00;0.00;;;;;;;;;;1736113;28;20211;-82
2023/09/17 04:30:36;;;;;;;0.00;0.00;;;;;;;;;;1735819;28;20195;-82
2023/09/17 04:31:27;;;;;;;0.00;0.00;;;;;;;;;;1733682;28;20212;-82
2023/09/17 04:32:18;;;;;;;0.00;0.00;;;;;;;;;;1733564;28;20200;-82
2023/09/17 04:33:12;;;;;;;0.00;0.00;;;;;;;;;;1741240;28;20884;-82
2023/09/17 04:34:03;;;;;;;0.00;0.00;;;;;;;;;;1736577;28;20275;-82
2023/09/17 04:34:55;;;;;;;0.00;0.00;;;;;;;;;;1740078;28;20525;-82
2023/09/17 04:35:47;;;;;;;0.00;0.00;;;;;;;;;;1730617;28;20228;-83
2023/09/17 04:36:38;;;;;;;0.00;0.00;;;;;;;;;;1731219;28;20246;-83
2023/09/17 04:37:29;;;;;;;0.00;0.00;;;;;;;;;;1734856;28;20223;-83
2023/09/17 04:38:21;;;;;;;0.00;0.00;;;;;;;;;;1737280;28;20211;-83
2023/09/17 04:39:14;;;;;;;0.00;0.00;;;;;;;;;;1738819;28;20234;-82
2023/09/17 04:40:08;;;;;;;0.00;0.00;;;;;;;;;;1742687;28;20210;-83
2023/09/17 04:41:00;;;;;;;0.00;0.00;;;;;;;;;;1738232;28;20608;-82
2023/09/17 04:41:52;;;;;;;0.00;0.00;;;;;;;;;;1732671;28;20204;-82
2023/09/17 04:42:44;;;;;;;0.00;0.00;;;;;;;;;;1741426;28;20229;-83
2023/09/17 04:43:36;;;;;;;0.00;0.00;;;;;;;;;;1737538;28;20261;-82
2023/09/17 04:44:28;;;;;;;0.00;0.00;;;;;;;;;;1737463;28;20905;-82
2023/09/17 04:45:32;;;;;;;0.00;0.00;;;;;;;;;;1739993;28;20195;-84
2023/09/17 04:46:25;;;;;;;0.00;0.00;;;;;;;;;;1737233;28;20199;-83
2023/09/17 04:47:16;;;;;;;0.00;0.00;;;;;;;;;;1736744;28;20218;-83
2023/09/17 04:48:09;;;;;;;0.00;0.00;;;;;;;;;;1738559;28;20571;-83
2023/09/17 04:49:02;;;;;;;0.00;0.00;;;;;;;;;;1735882;28;20227;-83
2023/09/17 04:49:53;;;;;;;0.00;0.00;;;;;;;;;;1736884;28;20204;-83
2023/09/17 04:50:46;;;;;;;0.00;0.00;;;;;;;;;;1737607;28;20231;-83
2023/09/17 04:51:38;;;;;;;0.00;0.00;;;;;;;;;;1736685;28;20724;-82
2023/09/17 04:52:30;;;;;;;0.00;0.00;;;;;;;;;;1738224;28;20225;-82
2023/09/17 04:53:21;;;;;;;0.00;0.00;;;;;;;;;;1739890;28;20235;-83
2023/09/17 04:54:12;;;;;;;0.00;0.00;;;;;;;;;;1735620;28;20207;-83
2023/09/17 04:55:04;;;;;;;0.00;0.00;;;;;;;;;;1736618;28;20203;-82
2023/09/17 04:55:55;;;;;;;0.00;0.00;;;;;;;;;;1737131;28;20255;-82
2023/09/17 04:56:47;;;;;;;0.00;0.00;;;;;;;;;;1737970;28;20649;-82
2023/09/17 04:57:39;;;;;;;0.00;0.00;;;;;;;;;;1736699;28;20207;-83
2023/09/17 04:58:30;;;;;;;0.00;0.00;;;;;;;;;;1743656;28;20235;-83
2023/09/17 04:59:21;;;;;;;0.00;0.00;;;;;;;;;;1738713;28;20196;-83
2023/09/17 05:00:14;;;;;;;0.00;0.00;;;;;;;;;;1737553;28;20203;-83
2023/09/17 05:01:06;;;;;;;0.00;0.00;;;;;;;;;;1736455;28;20235;-83
2023/09/17 05:01:58;;;;;;;0.00;0.00;;;;;;;;;;1737011;28;20235;-83
2023/09/17 05:02:49;;;;;;;0.00;0.00;;;;;;;;;;1738853;28;20645;-84
2023/09/17 05:03:41;;;;;;;0.00;0.00;;;;;;;;;;1744478;28;20199;-84
2023/09/17 05:04:34;;;;;;;0.00;0.00;;;;;;;;;;1733420;28;20230;-84
2023/09/17 05:05:26;;;;;;;0.00;0.00;;;;;;;;;;1736552;28;20211;-83
2023/09/17 05:06:17;;;;;;;0.00;0.00;;;;;;;;;;1739395;28;20603;-83
2023/09/17 05:07:08;;;;;;;0.00;0.00;;;;;;;;;;1739362;28;20287;-83
2023/09/17 05:08:00;;;;;;;0.00;0.00;;;;;;;;;;1738565;28;20238;-83
2023/09/17 05:08:51;;;;;;;0.00;0.00;;;;;;;;;;1741326;28;20217;-83
2023/09/17 05:09:43;;;;;;;0.00;0.00;;;;;;;;;;1736561;28;20211;-83
2023/09/17 05:10:34;;;;;;;0.00;0.00;;;;;;;;;;1736692;28;20247;-83
2023/09/17 05:11:25;;;;;;;0.00;0.00;;;;;;;;;;1738876;28;20199;-83
2023/09/17 05:12:17;;;;;;;0.00;0.00;;;;;;;;;;1739017;28;20214;-83